createdAt,value
2022-12-03T00:02:19.801Z,99872.41
2022-12-03T00:04:46.482Z,99869.63
2022-12-03T00:07:13.004Z,99868.34
2022-12-03T00:09:39.581Z,99873.97
2022-12-03T00:12:06.345Z,99873.88
2022-12-03T00:14:32.939Z,99865.06
2022-12-03T00:16:59.487Z,99863.16
2022-12-03T00:19:26.102Z,99858.94
2022-12-03T00:21:52.627Z,99861.28
2022-12-03T00:24:19.170Z,99859.84
2022-12-03T00:26:45.719Z,99865.78
2022-12-03T00:29:12.273Z,99863.56
2022-12-03T00:31:38.836Z,99865.91
2022-12-03T00:34:05.405Z,99874.69
2022-12-03T00:36:31.992Z,99875.44
2022-12-03T00:38:58.537Z,99874.09
2022-12-03T00:41:25.126Z,99870.50
2022-12-03T00:43:51.646Z,99871.25
2022-12-03T00:46:21.313Z,99878.63
2022-12-03T00:48:48.377Z,99888.56
2022-12-03T00:51:14.923Z,99894.13
2022-12-03T00:53:41.579Z,99898.16
2022-12-03T00:56:08.454Z,99885.69
2022-12-03T00:58:35.294Z,99891.72
2022-12-03T01:01:01.964Z,99890.03
2022-12-03T01:03:28.675Z,99894.13
2022-12-03T01:05:55.250Z,99901.97
2022-12-03T01:08:21.789Z,99886.63
2022-12-03T01:10:48.345Z,99894.03
2022-12-03T01:13:14.996Z,99892.44
2022-12-03T01:15:41.663Z,99891.78
2022-12-03T01:18:08.277Z,99884.44
2022-12-03T01:20:36.417Z,99882.97
2022-12-03T01:23:03.052Z,99881.38
2022-12-03T01:25:29.773Z,99888.63
2022-12-03T01:27:56.609Z,99882.53
2022-12-03T01:30:23.231Z,99889.22
2022-12-03T01:32:49.786Z,99884.97
2022-12-03T01:35:16.405Z,99900.31
2022-12-03T01:37:42.991Z,99894.00
2022-12-03T01:40:14.495Z,99897.78
2022-12-03T01:42:42.632Z,99898.09
2022-12-03T01:45:22.135Z,99900.00
2022-12-03T01:47:48.760Z,99900.44
2022-12-03T01:50:27.291Z,99900.59
2022-12-03T01:52:58.256Z,99892.88
2022-12-03T01:55:26.272Z,99901.47
2022-12-03T01:57:55.813Z,99899.78
2022-12-03T02:00:24.402Z,99904.09
2022-12-03T02:02:55.096Z,99904.41
2022-12-03T02:05:26.223Z,99907.41
2022-12-03T02:07:52.985Z,99904.41
2022-12-03T02:10:26.265Z,99903.00
2022-12-03T02:12:58.854Z,99893.16
2022-12-03T02:15:26.024Z,99905.03
2022-12-03T02:17:53.382Z,99899.59
2022-12-03T02:20:20.115Z,99899.00
2022-12-03T02:22:50.667Z,99899.53
2022-12-03T02:25:23.844Z,99893.56
2022-12-03T02:27:51.334Z,99898.50
2022-12-03T02:30:20.989Z,99893.81
2022-12-03T02:32:49.111Z,99898.44
2022-12-03T02:35:22.209Z,99897.41
2022-12-03T02:37:52.866Z,99892.34
2022-12-03T02:40:24.690Z,99883.69
2022-12-03T02:42:56.980Z,99891.41
2022-12-03T02:45:36.312Z,99894.34
2022-12-03T02:48:11.602Z,99885.06
2022-12-03T02:50:41.894Z,99894.78
2022-12-03T02:53:21.474Z,99902.25
2022-12-03T02:55:49.505Z,99909.38
2022-12-03T02:58:16.617Z,99911.13
2022-12-03T03:00:44.756Z,99905.69
2022-12-03T03:03:11.883Z,99895.53
2022-12-03T03:05:40.578Z,99898.50
2022-12-03T03:08:08.845Z,99896.63
2022-12-03T03:10:37.911Z,99899.75
2022-12-03T03:13:09.562Z,99895.84
2022-12-03T03:15:37.681Z,99895.31
2022-12-03T03:18:05.265Z,99891.66
2022-12-03T03:20:32.224Z,99900.31
2022-12-03T03:23:10.943Z,99898.19
2022-12-03T03:25:39.297Z,99896.06
2022-12-03T03:28:07.474Z,99895.69
2022-12-03T03:30:36.038Z,99897.09
2022-12-03T03:33:02.590Z,99908.16
2022-12-03T03:35:29.139Z,99908.97
2022-12-03T03:37:57.086Z,99904.13
2022-12-03T03:40:23.829Z,99903.31
2022-12-03T03:42:50.646Z,99897.69
2022-12-03T03:45:18.074Z,99904.78
2022-12-03T03:47:45.286Z,99912.88
2022-12-03T03:50:13.114Z,99914.19
2022-12-03T03:52:41.172Z,99906.75
2022-12-03T03:55:10.307Z,99909.88
2022-12-03T03:57:37.715Z,99904.53
2022-12-03T04:00:06.904Z,99897.69
2022-12-03T04:02:34.004Z,99905.75
2022-12-03T04:05:00.901Z,99908.38
2022-12-03T04:07:27.524Z,99917.28
2022-12-03T04:09:54.128Z,99909.63
2022-12-03T04:12:38.978Z,99914.56
2022-12-03T04:15:06.199Z,99909.06
2022-12-03T04:17:32.724Z,99910.75
2022-12-03T04:19:59.245Z,99901.56
2022-12-03T04:22:40.986Z,99902.06
2022-12-03T04:25:28.535Z,99898.84
2022-12-03T04:28:13.843Z,99908.28
2022-12-03T04:30:40.482Z,99908.88
2022-12-03T04:33:25.784Z,99895.88
2022-12-03T04:35:52.671Z,99901.22
2022-12-03T04:38:19.258Z,99908.50
2022-12-03T04:41:00.967Z,99896.59
2022-12-03T04:43:33.514Z,99901.66
2022-12-03T04:46:01.216Z,99888.47
2022-12-03T04:48:27.789Z,99893.56
2022-12-03T04:50:54.355Z,99887.31
2022-12-03T04:53:20.902Z,99891.56
2022-12-03T04:55:47.423Z,99899.31
2022-12-03T04:58:13.951Z,99909.75
2022-12-03T05:00:40.476Z,99901.00
2022-12-03T05:03:07.100Z,99905.03
2022-12-03T05:05:33.703Z,99903.00
2022-12-03T05:08:00.349Z,99901.63
2022-12-03T05:10:26.974Z,99902.19
2022-12-03T05:12:53.516Z,99900.22
2022-12-03T05:15:20.075Z,99908.94
2022-12-03T05:17:46.603Z,99904.09
2022-12-03T05:20:32.221Z,99903.63
2022-12-03T05:22:58.817Z,99910.69
2022-12-03T05:25:25.347Z,99906.66
2022-12-03T05:27:51.918Z,99913.81
2022-12-03T05:30:18.590Z,99909.88
2022-12-03T05:32:45.137Z,99910.75
2022-12-03T05:35:11.823Z,99913.69
2022-12-03T05:37:38.324Z,99919.63
2022-12-03T05:40:05.639Z,99921.25
2022-12-03T05:42:50.878Z,99911.28
2022-12-03T05:45:18.566Z,99916.78
2022-12-03T05:47:45.434Z,99917.78
2022-12-03T05:50:12.206Z,99924.44
2022-12-03T05:52:38.839Z,99921.44
2022-12-03T05:55:06.423Z,99920.91
2022-12-03T05:57:32.964Z,99919.31
2022-12-03T05:59:59.574Z,99917.59
2022-12-03T06:02:26.331Z,99920.31
2022-12-03T06:04:53.111Z,99921.88
2022-12-03T06:07:19.823Z,99913.72
2022-12-03T06:09:46.392Z,99920.16
2022-12-03T06:12:12.936Z,99910.13
2022-12-03T06:14:39.528Z,99910.19
2022-12-03T06:17:06.114Z,99908.66
2022-12-03T06:19:33.323Z,99909.53
2022-12-03T06:21:59.829Z,99901.47
2022-12-03T06:24:26.382Z,99911.25
2022-12-03T06:26:52.933Z,99916.28
2022-12-03T06:29:19.429Z,99917.53
2022-12-03T06:31:46.009Z,99927.75
2022-12-03T06:34:12.600Z,99926.16
2022-12-03T06:36:39.119Z,99929.88
2022-12-03T06:39:05.713Z,99927.97
2022-12-03T06:41:32.292Z,99921.81
2022-12-03T06:43:58.851Z,99923.13
2022-12-03T06:46:25.453Z,99927.66
2022-12-03T06:48:52.092Z,99929.00
2022-12-03T06:51:18.676Z,99924.88
2022-12-03T06:53:45.283Z,99926.28
2022-12-03T06:56:11.846Z,99931.19
2022-12-03T06:58:38.391Z,99942.00
2022-12-03T07:01:05.013Z,99941.63
2022-12-03T07:03:31.621Z,99939.50
2022-12-03T07:05:58.139Z,99941.00
2022-12-03T07:08:24.699Z,99937.47
2022-12-03T07:10:51.239Z,99930.88
2022-12-03T07:13:17.778Z,99925.63
2022-12-03T07:15:44.375Z,99931.16
2022-12-03T07:18:10.951Z,99935.44
2022-12-03T07:20:37.556Z,99937.06
2022-12-03T07:23:04.102Z,99937.25
2022-12-03T07:25:30.668Z,99951.47
2022-12-03T07:27:57.313Z,99944.09
2022-12-03T07:30:25.573Z,99947.94
2022-12-03T07:32:52.121Z,99953.38
2022-12-03T07:35:18.652Z,99950.84
2022-12-03T07:37:45.246Z,99941.22
2022-12-03T07:40:12.239Z,99946.44
2022-12-03T07:42:38.865Z,99947.25
2022-12-03T07:45:06.145Z,99940.78
2022-12-03T07:47:32.697Z,99938.97
2022-12-03T07:49:59.206Z,99937.16
2022-12-03T07:52:25.764Z,99942.31
2022-12-03T07:54:52.518Z,99944.06
2022-12-03T07:57:19.311Z,99939.94
2022-12-03T07:59:45.972Z,99944.09
2022-12-03T08:02:15.616Z,99930.50
2022-12-03T08:04:46.091Z,99943.16
2022-12-03T08:07:12.602Z,99946.28
2022-12-03T08:09:40.534Z,99947.88
2022-12-03T08:12:17.277Z,99942.44
2022-12-03T08:14:44.275Z,99937.72
2022-12-03T08:17:15.120Z,99941.78
2022-12-03T08:19:46.538Z,99940.44
2022-12-03T08:22:15.148Z,99947.72
2022-12-03T08:24:42.939Z,99937.88
2022-12-03T08:27:19.414Z,99936.81
2022-12-03T08:29:46.565Z,99940.13
2022-12-03T08:32:13.250Z,99946.31
2022-12-03T08:34:44.337Z,99944.09
2022-12-03T08:37:19.996Z,99938.88
2022-12-03T08:39:54.120Z,99951.06
2022-12-03T08:42:43.450Z,99942.50
2022-12-03T08:45:35.100Z,99956.66
2022-12-03T08:48:21.168Z,99954.19
2022-12-03T08:50:48.269Z,99962.28
2022-12-03T08:53:42.513Z,99956.34
2022-12-03T08:56:29.705Z,99962.50
2022-12-03T08:59:20.265Z,99966.63
2022-12-03T09:01:48.640Z,99968.03
2022-12-03T09:04:36.172Z,99968.56
2022-12-03T09:07:02.746Z,99975.03
2022-12-03T09:09:29.525Z,99967.84
2022-12-03T09:11:56.603Z,99968.34
2022-12-03T09:14:23.880Z,99962.22
2022-12-03T09:16:55.686Z,99966.53
2022-12-03T09:19:24.857Z,99954.66
2022-12-03T09:21:51.987Z,99956.06
2022-12-03T09:24:18.590Z,99950.81
2022-12-03T09:26:45.120Z,99952.53
2022-12-03T09:29:12.777Z,99955.16
2022-12-03T09:31:40.418Z,99956.97
2022-12-03T09:34:07.815Z,99960.00
2022-12-03T09:36:34.391Z,99949.44
2022-12-03T09:39:01.032Z,99960.22
2022-12-03T09:41:27.813Z,99962.34
2022-12-03T09:44:17.150Z,99952.75
2022-12-03T09:46:42.636Z,99952.03
2022-12-03T09:49:15.788Z,99954.06
2022-12-03T09:51:44.464Z,99945.59
2022-12-03T09:54:21.739Z,99940.94
2022-12-03T09:56:48.332Z,99941.56
2022-12-03T09:59:16.105Z,99940.97
2022-12-03T10:01:43.060Z,99940.34
2022-12-03T10:04:10.053Z,99942.59
2022-12-03T10:06:39.895Z,99943.19
2022-12-03T10:09:12.421Z,99938.84
2022-12-03T10:11:39.303Z,99944.19
2022-12-03T10:14:06.531Z,99943.69
2022-12-03T10:16:33.863Z,99942.59
2022-12-03T10:19:01.091Z,99934.09
2022-12-03T10:21:36.295Z,99940.34
2022-12-03T10:24:19.455Z,99929.38
2022-12-03T10:26:47.786Z,99923.59
2022-12-03T10:29:35.603Z,99922.75
2022-12-03T10:32:07.850Z,99921.44
2022-12-03T10:34:40.105Z,99918.03
2022-12-03T10:37:16.965Z,99910.84
2022-12-03T10:40:09.390Z,99918.91
2022-12-03T10:42:40.682Z,99909.59
2022-12-03T10:45:18.171Z,99909.19
2022-12-03T10:48:04.219Z,99899.66
2022-12-03T10:50:31.550Z,99911.38
2022-12-03T10:52:58.238Z,99898.03
2022-12-03T10:55:25.188Z,99895.75
2022-12-03T10:57:52.210Z,99900.00
2022-12-03T11:00:20.114Z,99895.78
2022-12-03T11:02:54.672Z,99891.81
2022-12-03T11:05:28.770Z,99883.16
2022-12-03T11:07:56.417Z,99886.81
2022-12-03T11:10:23.683Z,99887.75
2022-12-03T11:13:27.764Z,99887.84
2022-12-03T11:15:55.050Z,99882.28
2022-12-03T11:18:36.548Z,99893.78
2022-12-03T11:21:07.739Z,99886.22
2022-12-03T11:23:46.513Z,99893.41
2022-12-03T11:26:19.586Z,99888.13
2022-12-03T11:28:46.464Z,99894.72
2022-12-03T11:31:46.625Z,99889.56
2022-12-03T11:34:22.633Z,99884.22
2022-12-03T11:37:10.741Z,99865.13
2022-12-03T11:39:49.581Z,99859.66
2022-12-03T11:42:27.958Z,99865.94
2022-12-03T11:45:06.482Z,99869.06
2022-12-03T11:47:40.347Z,99866.34
2022-12-03T11:50:23.766Z,99869.56
2022-12-03T11:52:55.409Z,99865.41
2022-12-03T11:55:34.744Z,99870.75
2022-12-03T11:58:16.870Z,99861.78
2022-12-03T12:00:51.255Z,99852.31
2022-12-03T12:03:36.605Z,99850.91
2022-12-03T12:06:09.748Z,99861.22
2022-12-03T12:08:42.463Z,99870.97
2022-12-03T12:11:27.788Z,99860.41
2022-12-03T12:13:57.488Z,99858.16
2022-12-03T12:16:37.574Z,99861.81
2022-12-03T12:19:34.148Z,99860.31
2022-12-03T12:22:30.111Z,99846.28
2022-12-03T12:25:01.784Z,99845.34
2022-12-03T12:27:32.808Z,99845.72
2022-12-03T12:30:03.017Z,99845.13
2022-12-03T12:32:32.815Z,99850.94
2022-12-03T12:35:14.429Z,99850.56
2022-12-03T12:37:59.708Z,99843.09
2022-12-03T12:40:32.444Z,99840.53
2022-12-03T12:43:05.363Z,99843.56
2022-12-03T12:45:39.256Z,99847.34
2022-12-03T12:48:20.967Z,99853.28
2022-12-03T12:50:51.179Z,99840.66
2022-12-03T12:53:30.833Z,99847.22
2022-12-03T12:56:21.982Z,99849.47
2022-12-03T12:58:48.944Z,99838.25
2022-12-03T13:01:28.592Z,99845.72
2022-12-03T13:03:55.714Z,99831.28
2022-12-03T13:06:32.195Z,99838.16
2022-12-03T13:09:01.208Z,99835.97
2022-12-03T13:11:42.100Z,99833.28
2022-12-03T13:14:31.788Z,99828.88
2022-12-03T13:17:01.375Z,99823.75
2022-12-03T13:19:30.769Z,99831.44
2022-12-03T13:22:00.981Z,99827.53
2022-12-03T13:24:32.580Z,99837.63
2022-12-03T13:27:02.468Z,99827.44
2022-12-03T13:29:29.223Z,99827.22
2022-12-03T13:31:58.913Z,99817.13
2022-12-03T13:34:28.719Z,99817.88
2022-12-03T13:36:58.462Z,99823.41
2022-12-03T13:39:43.534Z,99822.38
2022-12-03T13:42:45.241Z,99819.75
2022-12-03T13:45:15.034Z,99829.38
2022-12-03T13:47:44.384Z,99834.28
2022-12-03T13:50:32.124Z,99835.59
2022-12-03T13:53:00.415Z,99836.09
2022-12-03T13:55:29.914Z,99841.16
2022-12-03T13:57:56.906Z,99838.84
2022-12-03T14:00:24.387Z,99840.09
2022-12-03T14:02:51.094Z,99842.63
2022-12-03T14:05:17.654Z,99837.19
2022-12-03T14:07:44.232Z,99845.84
2022-12-03T14:10:12.269Z,99853.09
2022-12-03T14:12:38.896Z,99845.59
2022-12-03T14:15:06.924Z,99847.22
2022-12-03T14:17:33.457Z,99856.50
2022-12-03T14:20:01.431Z,99846.34
2022-12-03T14:22:28.854Z,99850.38
2022-12-03T14:24:56.010Z,99844.19
2022-12-03T14:27:24.726Z,99845.13
2022-12-03T14:29:52.102Z,99852.91
2022-12-03T14:32:19.179Z,99849.69
2022-12-03T14:34:45.749Z,99854.34
2022-12-03T14:37:12.472Z,99854.50
2022-12-03T14:39:39.336Z,99858.25
2022-12-03T14:42:14.678Z,99857.53
2022-12-03T14:44:49.152Z,99856.75
2022-12-03T14:47:19.054Z,99860.63
2022-12-03T14:49:46.374Z,99858.75
2022-12-03T14:52:13.105Z,99854.28
2022-12-03T14:54:42.665Z,99862.56
2022-12-03T14:57:14.127Z,99856.34
2022-12-03T14:59:41.892Z,99862.56
2022-12-03T15:02:09.788Z,99871.28
2022-12-03T15:04:36.552Z,99861.97
2022-12-03T15:07:03.623Z,99867.53
2022-12-03T15:09:30.311Z,99868.47
2022-12-03T15:11:56.890Z,99866.22
2022-12-03T15:14:23.460Z,99872.97
2022-12-03T15:16:50.111Z,99875.47
2022-12-03T15:19:17.150Z,99877.59
2022-12-03T15:21:43.711Z,99878.69
2022-12-03T15:24:10.745Z,99874.06
2022-12-03T15:26:37.503Z,99873.34
2022-12-03T15:29:04.093Z,99875.91
2022-12-03T15:31:30.808Z,99877.31
2022-12-03T15:33:57.401Z,99860.97
2022-12-03T15:36:23.956Z,99866.44
2022-12-03T15:38:50.492Z,99857.94
2022-12-03T15:41:28.729Z,99859.25
2022-12-03T15:43:58.025Z,99864.06
2022-12-03T15:46:26.121Z,99865.19
2022-12-03T15:48:54.646Z,99884.50
2022-12-03T15:51:21.509Z,99875.97
2022-12-03T15:53:48.165Z,99873.88
2022-12-03T15:56:14.939Z,99878.69
2022-12-03T15:58:41.780Z,99870.50
2022-12-03T16:01:09.334Z,99875.84
2022-12-03T16:03:36.181Z,99873.44
2022-12-03T16:06:02.814Z,99866.13
2022-12-03T16:08:29.602Z,99870.28
2022-12-03T16:10:56.292Z,99857.91
2022-12-03T16:13:22.852Z,99856.88
2022-12-03T16:15:49.647Z,99859.25
2022-12-03T16:18:16.198Z,99863.09
2022-12-03T16:20:42.755Z,99867.41
2022-12-03T16:23:09.332Z,99864.81
2022-12-03T16:25:36.015Z,99865.00
2022-12-03T16:28:02.578Z,99851.88
2022-12-03T16:30:29.193Z,99860.97
2022-12-03T16:32:55.756Z,99867.97
2022-12-03T16:35:22.289Z,99861.69
2022-12-03T16:37:48.908Z,99862.69
2022-12-03T16:40:15.591Z,99859.84
2022-12-03T16:42:42.216Z,99855.09
2022-12-03T16:45:09.225Z,99848.22
2022-12-03T16:47:35.882Z,99845.31
2022-12-03T16:50:04.860Z,99844.78
2022-12-03T16:52:31.440Z,99842.63
2022-12-03T16:54:58.064Z,99859.97
2022-12-03T16:57:27.662Z,99857.66
2022-12-03T16:59:58.295Z,99862.97
2022-12-03T17:02:25.100Z,99858.75
2022-12-03T17:04:51.720Z,99854.91
2022-12-03T17:07:18.269Z,99857.31
2022-12-03T17:09:44.820Z,99859.28
2022-12-03T17:12:11.415Z,99874.34
2022-12-03T17:14:37.975Z,99864.03
2022-12-03T17:17:04.525Z,99865.63
2022-12-03T17:19:31.098Z,99868.06
2022-12-03T17:21:59.727Z,99857.66
2022-12-03T17:24:26.333Z,99862.81
2022-12-03T17:26:53.069Z,99856.13
2022-12-03T17:29:19.594Z,99861.47
2022-12-03T17:31:46.196Z,99857.75
2022-12-03T17:34:12.835Z,99864.19
2022-12-03T17:36:39.373Z,99868.22
2022-12-03T17:39:05.899Z,99872.25
2022-12-03T17:41:32.426Z,99865.19
2022-12-03T17:43:58.979Z,99872.06
2022-12-03T17:46:25.558Z,99867.47
2022-12-03T17:48:52.128Z,99858.88
2022-12-03T17:51:20.859Z,99864.81
2022-12-03T17:53:47.472Z,99868.25
2022-12-03T17:56:14.325Z,99874.34
2022-12-03T17:58:40.855Z,99875.44
2022-12-03T18:01:10.348Z,99862.19
2022-12-03T18:03:37.596Z,99863.00
2022-12-03T18:06:04.830Z,99863.81
2022-12-03T18:08:31.407Z,99864.09
2022-12-03T18:10:57.941Z,99866.81
2022-12-03T18:13:24.519Z,99872.13
2022-12-03T18:15:51.054Z,99867.00
2022-12-03T18:18:17.708Z,99871.28
2022-12-03T18:20:44.686Z,99863.75
2022-12-03T18:23:12.188Z,99873.13
2022-12-03T18:25:38.803Z,99875.84
2022-12-03T18:28:05.744Z,99869.91
2022-12-03T18:30:32.296Z,99861.28
2022-12-03T18:32:58.884Z,99866.25
2022-12-03T18:35:25.540Z,99866.44
2022-12-03T18:37:52.130Z,99872.19
2022-12-03T18:40:22.723Z,99872.63
2022-12-03T18:42:49.331Z,99863.34
2022-12-03T18:45:16.349Z,99870.41
2022-12-03T18:47:43.234Z,99868.59
2022-12-03T18:50:11.481Z,99872.13
2022-12-03T18:52:38.516Z,99875.47
2022-12-03T18:55:05.949Z,99878.69
2022-12-03T18:57:32.486Z,99874.50
2022-12-03T18:59:59.188Z,99876.28
2022-12-03T19:02:54.215Z,99884.78
2022-12-03T19:05:12.396Z,99877.31
2022-12-03T19:07:39.045Z,99867.13
2022-12-03T19:10:06.165Z,99886.00
2022-12-03T19:12:33.159Z,99872.47
2022-12-03T19:14:59.699Z,99883.53
2022-12-03T19:17:27.363Z,99889.59
2022-12-03T19:19:54.746Z,99887.91
2022-12-03T19:22:21.612Z,99899.50
2022-12-03T19:24:48.197Z,99888.13
2022-12-03T19:27:14.780Z,99894.56
2022-12-03T19:29:41.543Z,99886.56
2022-12-03T19:32:09.020Z,99883.84
2022-12-03T19:34:36.045Z,99892.53
2022-12-03T19:37:02.550Z,99896.06
2022-12-03T19:39:29.078Z,99897.75
2022-12-03T19:41:55.632Z,99902.44
2022-12-03T19:44:22.220Z,99903.97
2022-12-03T19:46:49.550Z,99906.91
2022-12-03T19:49:21.265Z,99911.34
2022-12-03T19:51:48.283Z,99899.06
2022-12-03T19:54:15.738Z,99907.78
2022-12-03T19:56:43.050Z,99907.78
2022-12-03T19:59:12.151Z,99901.81
2022-12-03T20:01:40.878Z,99904.72
2022-12-03T20:04:08.155Z,99898.78
2022-12-03T20:06:37.662Z,99896.66
2022-12-03T20:09:08.600Z,99891.94
2022-12-03T20:11:35.837Z,99901.25
2022-12-03T20:14:05.374Z,99901.75
2022-12-03T20:16:32.238Z,99893.94
2022-12-03T20:19:01.640Z,99883.16
2022-12-03T20:21:31.741Z,99886.56
2022-12-03T20:23:58.534Z,99883.16
2022-12-03T20:26:25.785Z,99889.59
2022-12-03T20:28:56.293Z,99883.72
2022-12-03T20:31:25.647Z,99892.56
2022-12-03T20:33:56.014Z,99889.47
2022-12-03T20:36:23.334Z,99891.00
2022-12-03T20:38:54.951Z,99893.19
2022-12-03T20:41:21.853Z,99898.41
2022-12-03T20:43:48.969Z,99893.84
2022-12-03T20:46:30.186Z,99880.16
2022-12-03T20:48:57.675Z,99880.16
2022-12-03T20:51:27.234Z,99889.44
2022-12-03T20:53:54.606Z,99888.72
2022-12-03T20:56:33.516Z,99894.06
2022-12-03T20:59:04.805Z,99879.50
2022-12-03T21:01:31.589Z,99880.81
2022-12-03T21:03:58.397Z,99892.44
2022-12-03T21:06:27.851Z,99888.50
2022-12-03T21:08:56.732Z,99884.03
2022-12-03T21:11:26.012Z,99876.97
2022-12-03T21:13:54.364Z,99875.97
2022-12-03T21:16:45.598Z,99881.41
2022-12-03T21:19:11.376Z,99873.88
2022-12-03T21:21:37.966Z,99881.03
2022-12-03T21:24:04.818Z,99877.91
2022-12-03T21:26:31.377Z,99880.50
2022-12-03T21:28:58.119Z,99879.59
2022-12-03T21:31:26.435Z,99886.13
2022-12-03T21:33:54.462Z,99884.13
2022-12-03T21:36:21.543Z,99871.81
2022-12-03T21:38:48.457Z,99876.34
2022-12-03T21:41:15.502Z,99878.41
2022-12-03T21:43:43.471Z,99877.03
2022-12-03T21:47:08.426Z,99866.38
2022-12-03T21:49:00.226Z,99873.47
2022-12-03T21:51:26.789Z,99874.72
2022-12-03T21:53:53.584Z,99873.81
2022-12-03T21:56:20.454Z,99885.25
2022-12-03T21:58:47.040Z,99882.09
2022-12-03T22:01:19.793Z,99876.16
2022-12-03T22:03:47.087Z,99881.44
2022-12-03T22:06:14.273Z,99869.50
2022-12-03T22:08:41.214Z,99886.25
2022-12-03T22:11:11.015Z,99881.88
2022-12-03T22:13:39.498Z,99887.84
2022-12-03T22:16:08.156Z,99890.06
2022-12-03T22:18:34.854Z,99889.72
2022-12-03T22:21:06.058Z,99886.97
2022-12-03T22:23:33.350Z,99875.78
2022-12-03T22:26:02.100Z,99880.53
2022-12-03T22:28:29.270Z,99875.31
2022-12-03T22:30:55.861Z,99873.34
2022-12-03T22:33:23.155Z,99875.84
2022-12-03T22:36:00.808Z,99872.63
2022-12-03T22:38:29.134Z,99864.78
2022-12-03T22:40:56.158Z,99852.44
2022-12-03T22:43:23.133Z,99860.13
2022-12-03T22:45:54.754Z,99855.66
2022-12-03T22:48:22.735Z,99857.91
2022-12-03T22:50:51.154Z,99849.28
2022-12-03T22:53:18.076Z,99848.97
2022-12-03T22:55:44.738Z,99849.97
2022-12-03T22:58:11.377Z,99840.16
2022-12-03T23:00:40.497Z,99834.09
2022-12-03T23:03:07.926Z,99837.81
2022-12-03T23:05:38.994Z,99834.22
2022-12-03T23:08:11.610Z,99832.19
2022-12-03T23:10:42.201Z,99834.59
2022-12-03T23:13:09.954Z,99842.75
2022-12-03T23:15:37.020Z,99832.19
2022-12-03T23:18:03.901Z,99836.25
2022-12-03T23:20:30.453Z,99841.53
2022-12-03T23:22:56.964Z,99822.69
2022-12-03T23:25:23.483Z,99819.50
2022-12-03T23:27:50.064Z,99816.63
2022-12-03T23:30:16.757Z,99813.38
2022-12-03T23:32:44.470Z,99802.19
2022-12-03T23:35:12.553Z,99806.72
2022-12-03T23:37:42.239Z,99817.28
2022-12-03T23:40:09.216Z,99810.03
2022-12-03T23:42:35.764Z,99810.19
2022-12-03T23:45:02.328Z,99805.53
2022-12-03T23:47:28.935Z,99806.91
2022-12-03T23:49:55.672Z,99811.69
2022-12-03T23:52:22.494Z,99815.50
2022-12-03T23:54:49.033Z,99814.41
2022-12-03T23:57:16.220Z,99820.78
2022-12-03T23:59:43.390Z,99824.69
